Time;durP1;ratioP1;P1;durP2;ratioP2;P2;SDS_P1;SDS_P2;PMS_P1;PMS_P2;Temp;Humidity;BMP_temperature;BMP_pressure;BME280_temperature;BME280_humidity;BME280_pressure;Samples;Min_cycle;Max_cycle;Signal;HPM_P1;HPM_P2
2023/07/28 00:01:33;;;;;;;1.77;1.67;;;;;;;;;;5095668;28;20038;-77
2023/07/28 00:03:58;;;;;;;1.67;1.58;;;;;;;;;;5095589;28;20024;-77
2023/07/28 00:06:24;;;;;;;2.03;1.83;;;;;;;;;;5094614;28;20463;-76
2023/07/28 00:08:49;;;;;;;1.85;1.73;;;;;;;;;;5094505;28;20488;-77
2023/07/28 00:11:15;;;;;;;2.13;1.92;;;;;;;;;;5095667;28;20024;-77
2023/07/28 00:13:41;;;;;;;2.22;1.80;;;;;;;;;;5094041;28;20044;-77
2023/07/28 00:16:07;;;;;;;2.30;2.10;;;;;;;;;;5094311;28;20032;-77
2023/07/28 00:18:32;;;;;;;2.40;2.05;;;;;;;;;;5095252;28;20444;-77
2023/07/28 00:20:58;;;;;;;2.70;2.05;;;;;;;;;;5095505;28;20414;-77
2023/07/28 00:23:24;;;;;;;2.45;2.03;;;;;;;;;;5095415;28;20060;-77
2023/07/28 00:25:49;;;;;;;2.10;1.90;;;;;;;;;;5093451;28;20479;-76
2023/07/28 00:28:14;;;;;;;2.80;2.35;;;;;;;;;;5095046;28;20364;-77
2023/07/28 00:30:40;;;;;;;2.63;2.22;;;;;;;;;;5095584;28;20028;-77
2023/07/28 00:33:05;;;;;;;4.60;2.42;;;;;;;;;;5094064;28;20047;-77
2023/07/28 00:35:31;;;;;;;3.45;2.35;;;;;;;;;;5093608;28;20446;-77
2023/07/28 00:37:56;;;;;;;5.30;2.38;;;;;;;;;;5093895;28;20483;-77
2023/07/28 00:40:22;;;;;;;3.97;2.47;;;;;;;;;;5094778;28;20024;-77
2023/07/28 00:42:48;;;;;;;3.20;2.60;;;;;;;;;;5093504;28;20490;-77
2023/07/28 00:45:13;;;;;;;3.45;2.40;;;;;;;;;;5095032;28;20028;-77
2023/07/28 00:47:39;;;;;;;2.90;2.33;;;;;;;;;;5094965;28;20036;-77
2023/07/28 00:50:05;;;;;;;2.50;2.20;;;;;;;;;;5093733;28;20032;-77
2023/07/28 00:52:32;;;;;;;4.50;2.40;;;;;;;;;;5093311;28;20024;-77
2023/07/28 00:54:57;;;;;;;3.42;2.40;;;;;;;;;;5093631;28;20028;-77
2023/07/28 00:57:22;;;;;;;3.03;2.50;;;;;;;;;;5093540;28;20081;-77
2023/07/28 00:59:48;;;;;;;4.70;3.00;;;;;;;;;;5095006;28;20089;-77
2023/07/28 01:02:13;;;;;;;3.70;2.42;;;;;;;;;;5093725;28;20036;-77
2023/07/28 01:04:40;;;;;;;2.78;2.42;;;;;;;;;;5093122;28;20031;-79
2023/07/28 01:07:08;;;;;;;2.88;2.30;;;;;;;;;;5094315;28;20028;-77
2023/07/28 01:09:40;;;;;;;3.92;2.70;;;;;;;;;;5094438;28;20027;-77
2023/07/28 01:12:09;;;;;;;4.13;2.72;;;;;;;;;;5092884;28;20040;-76
2023/07/28 01:14:34;;;;;;;4.35;2.47;;;;;;;;;;5093319;28;20024;-76
2023/07/28 01:16:59;;;;;;;2.55;2.17;;;;;;;;;;5094156;28;20368;-77
2023/07/28 01:19:25;;;;;;;4.15;2.50;;;;;;;;;;5094030;28;20032;-77
2023/07/28 01:22:03;;;;;;;2.55;2.22;;;;;;;;;;5093959;28;20501;-76
2023/07/28 01:24:41;;;;;;;3.97;2.30;;;;;;;;;;5093096;28;20020;-77
2023/07/28 01:27:07;;;;;;;2.78;2.40;;;;;;;;;;5092760;28;20032;-76
2023/07/28 01:29:33;;;;;;;2.78;2.55;;;;;;;;;;5094194;28;20081;-76
2023/07/28 01:31:59;;;;;;;4.55;2.20;;;;;;;;;;5092928;28;20051;-77
2023/07/28 01:34:24;;;;;;;3.53;2.80;;;;;;;;;;5093877;28;20481;-77
2023/07/28 01:36:50;;;;;;;2.85;2.60;;;;;;;;;;5091835;28;20110;-77
2023/07/28 01:39:15;;;;;;;2.60;2.20;;;;;;;;;;5092452;28;20552;-77
2023/07/28 01:41:43;;;;;;;3.13;2.35;;;;;;;;;;5092515;28;20114;-77
2023/07/28 01:44:09;;;;;;;2.60;2.40;;;;;;;;;;5093989;28;20024;-77
2023/07/28 01:46:34;;;;;;;4.05;2.40;;;;;;;;;;5093963;28;20407;-77
2023/07/28 01:48:59;;;;;;;3.42;2.38;;;;;;;;;;5092721;28;20028;-77
2023/07/28 01:51:25;;;;;;;2.72;2.30;;;;;;;;;;5094013;28;20061;-77
2023/07/28 01:54:09;;;;;;;2.42;2.22;;;;;;;;;;5092902;28;20055;-77
2023/07/28 01:56:34;;;;;;;3.35;2.17;;;;;;;;;;5092267;28;20114;-77
2023/07/28 01:59:00;;;;;;;2.97;2.30;;;;;;;;;;5094024;28;20170;-77
2023/07/28 02:01:25;;;;;;;4.43;2.47;;;;;;;;;;5092098;28;20035;-77
2023/07/28 02:03:50;;;;;;;3.17;2.40;;;;;;;;;;5093580;28;20025;-77
2023/07/28 02:06:16;;;;;;;3.55;2.53;;;;;;;;;;5075268;28;20446;-77
2023/07/28 02:08:41;;;;;;;3.03;2.50;;;;;;;;;;5092211;28;20032;-77
2023/07/28 02:11:06;;;;;;;2.97;2.30;;;;;;;;;;5092103;28;20032;-77
2023/07/28 02:13:32;;;;;;;4.30;2.50;;;;;;;;;;5093126;28;20089;-77
2023/07/28 02:15:57;;;;;;;3.05;2.33;;;;;;;;;;5092364;28;20060;-77
2023/07/28 02:18:22;;;;;;;4.00;2.78;;;;;;;;;;5093288;28;20077;-77
2023/07/28 02:20:49;;;;;;;3.45;2.40;;;;;;;;;;5093496;28;20035;-77
2023/07/28 02:23:14;;;;;;;3.88;2.20;;;;;;;;;;5075102;28;20028;-77
2023/07/28 02:25:39;;;;;;;3.50;2.35;;;;;;;;;;5092012;28;20046;-77
2023/07/28 02:28:06;;;;;;;3.42;2.47;;;;;;;;;;5092102;28;20039;-77
2023/07/28 02:30:31;;;;;;;3.25;2.38;;;;;;;;;;5092282;28;20032;-77
2023/07/28 02:32:57;;;;;;;3.35;2.30;;;;;;;;;;5093432;28;20087;-77
2023/07/28 02:35:22;;;;;;;3.60;2.33;;;;;;;;;;5091902;28;20036;-77
2023/07/28 02:37:48;;;;;;;3.88;2.30;;;;;;;;;;5074918;28;20043;-77
2023/07/28 02:40:13;;;;;;;2.75;2.33;;;;;;;;;;5091880;28;20062;-77
2023/07/28 02:42:39;;;;;;;3.67;2.40;;;;;;;;;;5093568;28;20370;-77
2023/07/28 02:45:05;;;;;;;3.45;2.30;;;;;;;;;;5074974;28;20085;-77
2023/07/28 02:47:30;;;;;;;4.03;2.38;;;;;;;;;;5093879;28;20031;-77
2023/07/28 02:49:55;;;;;;;4.43;2.67;;;;;;;;;;5097008;28;20119;-77
2023/07/28 02:52:21;;;;;;;3.65;2.55;;;;;;;;;;5095820;28;20032;-77
2023/07/28 02:54:46;;;;;;;2.97;2.45;;;;;;;;;;5097422;28;20112;-77
2023/07/28 02:57:12;;;;;;;2.85;2.58;;;;;;;;;;5095661;28;20028;-77
2023/07/28 02:59:37;;;;;;;3.28;2.47;;;;;;;;;;5096846;28;20031;-76
2023/07/28 03:02:03;;;;;;;2.60;2.15;;;;;;;;;;5095639;28;20502;-77
2023/07/28 03:04:28;;;;;;;3.95;2.70;;;;;;;;;;5095530;28;20398;-77
2023/07/28 03:06:53;;;;;;;3.20;2.55;;;;;;;;;;5096662;28;20432;-77
2023/07/28 03:09:19;;;;;;;3.85;2.50;;;;;;;;;;5095328;28;20032;-77
2023/07/28 03:11:44;;;;;;;3.20;2.30;;;;;;;;;;5096844;28;20435;-77
2023/07/28 03:14:10;;;;;;;3.80;2.58;;;;;;;;;;5095251;28;20097;-77
2023/07/28 03:16:35;;;;;;;2.67;2.30;;;;;;;;;;5096538;28;20032;-77
2023/07/28 03:19:01;;;;;;;4.40;2.50;;;;;;;;;;5096404;28;20024;-77
2023/07/28 03:21:29;;;;;;;3.10;2.35;;;;;;;;;;5096800;28;20043;-77
2023/07/28 03:23:55;;;;;;;5.93;2.42;;;;;;;;;;5096898;28;20118;-77
2023/07/28 03:26:20;;;;;;;6.22;2.80;;;;;;;;;;5096562;28;20104;-77
2023/07/28 03:28:46;;;;;;;4.07;3.00;;;;;;;;;;5094958;28;20035;-77
2023/07/28 03:31:11;;;;;;;4.85;2.83;;;;;;;;;;5095287;28;20449;-77
2023/07/28 03:33:37;;;;;;;3.92;2.65;;;;;;;;;;5095230;28;20141;-77
2023/07/28 03:36:02;;;;;;;4.18;2.28;;;;;;;;;;5096293;28;20032;-77
2023/07/28 03:38:27;;;;;;;2.72;2.42;;;;;;;;;;5094877;28;20099;-77
2023/07/28 03:40:53;;;;;;;3.95;2.85;;;;;;;;;;5096034;28;20031;-77
2023/07/28 03:43:18;;;;;;;3.25;2.40;;;;;;;;;;5096112;28;20108;-77
2023/07/28 03:45:44;;;;;;;5.90;3.15;;;;;;;;;;5095010;28;20474;-77
2023/07/28 03:48:09;;;;;;;5.13;3.10;;;;;;;;;;5096394;28;20081;-77
2023/07/28 03:50:34;;;;;;;3.55;2.83;;;;;;;;;;5094760;28;20040;-77
2023/07/28 03:53:00;;;;;;;4.95;3.05;;;;;;;;;;5095770;28;20024;-77
2023/07/28 03:55:25;;;;;;;3.92;2.53;;;;;;;;;;5095775;28;20122;-77
2023/07/28 03:57:50;;;;;;;5.63;3.05;;;;;;;;;;5095941;28;20035;-77
2023/07/28 04:00:16;;;;;;;4.47;2.65;;;;;;;;;;5095019;28;20036;-77
2023/07/28 04:02:41;;;;;;;4.05;3.17;;;;;;;;;;5094346;28;20024;-76
2023/07/28 04:05:07;;;;;;;5.65;2.90;;;;;;;;;;5095635;28;20168;-77
2023/07/28 04:07:32;;;;;;;4.05;3.20;;;;;;;;;;5094690;28;20035;-77
2023/07/28 04:09:58;;;;;;;5.55;3.00;;;;;;;;;;5095830;28;20109;-76
2023/07/28 04:12:23;;;;;;;4.60;2.90;;;;;;;;;;5094364;28;20040;-77
2023/07/28 04:14:48;;;;;;;5.68;3.10;;;;;;;;;;5094221;28;20085;-77
2023/07/28 04:17:14;;;;;;;7.13;3.38;;;;;;;;;;5094447;28;20028;-77
2023/07/28 04:19:39;;;;;;;5.15;3.03;;;;;;;;;;5094141;28;20534;-77
2023/07/28 04:22:05;;;;;;;5.88;3.15;;;;;;;;;;5095377;28;20028;-77
2023/07/28 04:24:30;;;;;;;6.03;3.20;;;;;;;;;;5093908;28;20032;-77
2023/07/28 04:26:57;;;;;;;6.35;2.97;;;;;;;;;;5093870;28;20391;-77
2023/07/28 04:29:22;;;;;;;4.22;3.00;;;;;;;;;;5093925;28;20028;-77
2023/07/28 04:31:48;;;;;;;3.55;3.00;;;;;;;;;;5094109;28;20043;-77
2023/07/28 04:34:13;;;;;;;5.55;3.22;;;;;;;;;;5095003;28;20057;-77
2023/07/28 04:36:39;;;;;;;4.47;2.95;;;;;;;;;;5076711;28;20032;-76
2023/07/28 04:39:04;;;;;;;4.88;3.20;;;;;;;;;;5095194;28;20090;-77
2023/07/28 04:41:29;;;;;;;6.72;3.33;;;;;;;;;;5095098;28;20486;-77
2023/07/28 04:43:55;;;;;;;5.97;2.92;;;;;;;;;;5094797;28;20608;-77
2023/07/28 04:46:21;;;;;;;4.13;2.88;;;;;;;;;;5094993;28;20024;-77
2023/07/28 04:48:46;;;;;;;5.43;3.30;;;;;;;;;;5093791;28;20032;-77
2023/07/28 04:51:11;;;;;;;6.35;3.50;;;;;;;;;;5093645;28;20120;-77
2023/07/28 04:53:37;;;;;;;5.10;3.20;;;;;;;;;;5094873;28;20485;-77
2023/07/28 04:56:03;;;;;;;4.93;3.10;;;;;;;;;;5094878;28;20077;-77
2023/07/28 04:58:28;;;;;;;4.45;3.03;;;;;;;;;;5094757;28;20042;-77
2023/07/28 05:00:54;;;;;;;5.07;3.17;;;;;;;;;;5094751;28;20024;-77
2023/07/28 05:03:19;;;;;;;5.40;3.15;;;;;;;;;;5093278;28;20470;-77
2023/07/28 05:05:45;;;;;;;7.18;3.30;;;;;;;;;;5076609;28;20028;-77
2023/07/28 05:08:11;;;;;;;5.60;3.22;;;;;;;;;;5094455;28;20024;-77
2023/07/28 05:10:36;;;;;;;7.15;3.58;;;;;;;;;;5092717;28;20441;-76
2023/07/28 05:13:04;;;;;;;5.60;3.20;;;;;;;;;;5092381;28;20139;-77
2023/07/28 05:15:29;;;;;;;6.32;3.42;;;;;;;;;;5094350;28;20372;-77
2023/07/28 05:17:54;;;;;;;7.45;3.47;;;;;;;;;;5094199;28;20028;-76
2023/07/28 05:20:20;;;;;;;5.78;3.80;;;;;;;;;;5092946;28;20035;-77
2023/07/28 05:22:45;;;;;;;5.95;3.50;;;;;;;;;;5093118;28;20514;-77
2023/07/28 05:25:10;;;;;;;6.07;3.05;;;;;;;;;;5094033;28;20032;-77
2023/07/28 05:27:36;;;;;;;7.20;3.83;;;;;;;;;;5093120;28;20032;-77
2023/07/28 05:30:01;;;;;;;8.80;4.00;;;;;;;;;;5094233;28;20103;-77
2023/07/28 05:32:27;;;;;;;5.45;3.10;;;;;;;;;;5093895;28;20028;-77
2023/07/28 05:34:52;;;;;;;5.88;3.40;;;;;;;;;;5093812;28;20028;-77
2023/07/28 05:37:17;;;;;;;8.02;3.97;;;;;;;;;;5092835;28;20032;-77
2023/07/28 05:39:44;;;;;;;5.50;3.90;;;;;;;;;;5094064;28;20356;-77
2023/07/28 05:42:09;;;;;;;9.07;3.80;;;;;;;;;;5093775;28;20032;-77
2023/07/28 05:44:34;;;;;;;9.65;3.97;;;;;;;;;;5093219;28;20039;-77
2023/07/28 05:47:00;;;;;;;8.35;3.70;;;;;;;;;;5093803;28;20040;-77
2023/07/28 05:49:25;;;;;;;6.95;4.22;;;;;;;;;;5093774;28;20039;-77
2023/07/28 05:51:51;;;;;;;6.72;3.63;;;;;;;;;;5093863;28;20032;-77
2023/07/28 05:54:16;;;;;;;7.53;4.10;;;;;;;;;;5075605;28;20118;-77
2023/07/28 05:56:42;;;;;;;7.85;3.83;;;;;;;;;;5093957;28;20470;-77
2023/07/28 05:59:07;;;;;;;6.90;3.97;;;;;;;;;;5092401;28;20032;-77
2023/07/28 06:01:33;;;;;;;7.55;4.00;;;;;;;;;;5092620;28;20036;-77
2023/07/28 06:03:59;;;;;;;7.43;3.50;;;;;;;;;;5092141;28;20028;-78
2023/07/28 06:06:27;;;;;;;4.63;3.63;;;;;;;;;;5093552;28;20062;-75
2023/07/28 06:08:53;;;;;;;5.93;3.42;;;;;;;;;;5092358;28;20032;-75
2023/07/28 06:11:20;;;;;;;5.47;3.17;;;;;;;;;;5092615;28;20057;-77
2023/07/28 06:13:46;;;;;;;6.72;3.72;;;;;;;;;;5092224;28;20056;-77
2023/07/28 06:16:12;;;;;;;6.28;3.55;;;;;;;;;;5093312;28;20081;-77
2023/07/28 06:18:38;;;;;;;7.32;3.78;;;;;;;;;;5093433;28;20065;-77
2023/07/28 06:21:03;;;;;;;6.50;3.60;;;;;;;;;;5092414;28;20548;-77
2023/07/28 06:23:28;;;;;;;6.55;3.97;;;;;;;;;;5095826;28;20024;-77
2023/07/28 06:25:54;;;;;;;8.05;3.60;;;;;;;;;;5098038;28;20352;-77
2023/07/28 06:28:20;;;;;;;7.88;3.45;;;;;;;;;;5096207;28;20024;-77
2023/07/28 06:30:46;;;;;;;5.85;3.20;;;;;;;;;;5096267;28;20111;-77
2023/07/28 06:33:11;;;;;;;4.53;2.95;;;;;;;;;;5097990;28;20077;-77
2023/07/28 06:35:37;;;;;;;5.70;3.13;;;;;;;;;;5096240;28;20024;-77
2023/07/28 06:38:02;;;;;;;6.90;3.50;;;;;;;;;;5096001;28;20028;-77
2023/07/28 06:40:28;;;;;;;6.55;3.70;;;;;;;;;;5096202;28;20032;-76
2023/07/28 06:42:53;;;;;;;6.95;3.63;;;;;;;;;;5095998;28;20024;-77
2023/07/28 06:45:19;;;;;;;6.28;3.70;;;;;;;;;;5096209;28;20043;-77
2023/07/28 06:47:45;;;;;;;5.82;3.33;;;;;;;;;;5097178;28;20497;-77
2023/07/28 06:50:11;;;;;;;4.93;2.83;;;;;;;;;;5096073;28;20115;-77
2023/07/28 06:52:36;;;;;;;4.75;2.90;;;;;;;;;;5095773;28;20039;-76
2023/07/28 06:55:01;;;;;;;7.75;3.33;;;;;;;;;;5097013;28;20039;-77
2023/07/28 06:57:27;;;;;;;7.72;3.35;;;;;;;;;;5095473;28;20035;-75
2023/07/28 06:59:52;;;;;;;4.38;2.85;;;;;;;;;;5097185;28;20479;-76
2023/07/28 07:02:18;;;;;;;3.97;3.05;;;;;;;;;;5097062;28;20028;-77
2023/07/28 07:04:43;;;;;;;5.00;3.00;;;;;;;;;;5061992;28;20387;-77
2023/07/28 07:07:09;;;;;;;4.75;2.95;;;;;;;;;;5096723;28;20056;-77
2023/07/28 07:09:34;;;;;;;7.38;3.15;;;;;;;;;;5095822;28;20024;-76
2023/07/28 07:12:00;;;;;;;5.28;3.03;;;;;;;;;;5097008;28;20071;-77
2023/07/28 07:14:26;;;;;;;5.75;3.15;;;;;;;;;;5096713;28;20100;-78
2023/07/28 07:16:51;;;;;;;4.93;3.17;;;;;;;;;;5096929;28;20497;-78
2023/07/28 07:19:16;;;;;;;5.65;3.58;;;;;;;;;;5095216;28;20028;-78
2023/07/28 07:21:44;;;;;;;6.97;3.45;;;;;;;;;;5095577;28;20039;-78
2023/07/28 07:24:10;;;;;;;8.55;4.05;;;;;;;;;;5095123;28;20479;-78
2023/07/28 07:26:35;;;;;;;7.22;3.60;;;;;;;;;;5095264;28;20031;-78
2023/07/28 07:29:00;;;;;;;7.57;3.25;;;;;;;;;;5096526;28;20056;-80
2023/07/28 07:31:26;;;;;;;4.65;3.40;;;;;;;;;;5095183;28;20031;-77
2023/07/28 07:33:51;;;;;;;4.80;3.22;;;;;;;;;;5095730;28;20099;-77
2023/07/28 07:36:18;;;;;;;8.00;3.45;;;;;;;;;;5094450;28;20032;-76
2023/07/28 07:38:48;;;;;;;6.93;3.50;;;;;;;;;;5077929;28;20384;-77
2023/07/28 07:41:19;;;;;;;17.50;6.00;;;;;;;;;;5094834;28;20040;-74
2023/07/28 07:43:46;;;;;;;20.67;6.93;;;;;;;;;;5096528;28;20352;-78
2023/07/28 07:46:12;;;;;;;24.27;8.68;;;;;;;;;;5094759;28;20028;-76
2023/07/28 07:48:37;;;;;;;25.13;7.90;;;;;;;;;;5095065;28;20030;-77
2023/07/28 07:51:03;;;;;;;13.75;6.53;;;;;;;;;;5096741;28;20040;-78
2023/07/28 07:53:29;;;;;;;15.43;5.78;;;;;;;;;;5096164;28;20054;-78
2023/07/28 07:55:54;;;;;;;14.13;6.07;;;;;;;;;;5094743;28;20048;-76
2023/07/28 07:58:19;;;;;;;15.20;5.95;;;;;;;;;;5095754;28;20039;-77
2023/07/28 08:00:45;;;;;;;10.68;5.80;;;;;;;;;;5094462;28;20077;-78
2023/07/28 08:03:11;;;;;;;13.55;6.00;;;;;;;;;;5094523;28;20027;-79
2023/07/28 08:05:37;;;;;;;10.07;5.22;;;;;;;;;;5095861;28;20040;-78
2023/07/28 08:08:02;;;;;;;11.05;5.60;;;;;;;;;;5094608;28;20107;-78
2023/07/28 08:10:28;;;;;;;9.85;5.30;;;;;;;;;;5095794;28;20468;-78
2023/07/28 08:12:55;;;;;;;11.18;5.57;;;;;;;;;;5094293;28;20035;-79
2023/07/28 08:15:20;;;;;;;9.15;5.18;;;;;;;;;;5094086;28;20055;-78
2023/07/28 08:17:46;;;;;;;10.38;5.32;;;;;;;;;;5095809;28;20028;-79
2023/07/28 08:20:12;;;;;;;10.18;4.97;;;;;;;;;;5095910;28;20477;-79
2023/07/28 08:22:37;;;;;;;8.30;5.10;;;;;;;;;;5094471;28;20028;-79
2023/07/28 08:25:04;;;;;;;10.52;5.35;;;;;;;;;;5096178;28;20031;-81
2023/07/28 08:27:36;;;;;;;12.60;5.28;;;;;;;;;;5075996;28;20119;-80
2023/07/28 08:30:06;;;;;;;16.02;5.15;;;;;;;;;;5074627;28;20056;-81
2023/07/28 08:32:52;;;;;;;11.93;5.18;;;;;;;;;;5074699;28;20043;-82
2023/07/28 08:35:40;;;;;;;9.27;5.28;;;;;;;;;;5075997;28;20024;-81
2023/07/28 08:38:14;;;;;;;11.23;5.03;;;;;;;;;;5095862;28;20028;-77
2023/07/28 08:40:47;;;;;;;;;;;;;;;;;;5094335;28;20032;-79
2023/07/28 08:43:32;;;;;;;9.50;4.78;;;;;;;;;;5126375;27;19916;-80
2023/07/28 08:46:01;;;;;;;5.53;4.25;;;;;;;;;;5093305;28;20534;-82
2023/07/28 08:48:36;;;;;;;7.05;4.68;;;;;;;;;;5094419;28;20085;-80
2023/07/28 08:51:04;;;;;;;5.32;4.47;;;;;;;;;;5060282;28;20387;-81
2023/07/28 08:53:31;;;;;;;6.43;4.57;;;;;;;;;;5093534;28;20032;-79
2023/07/28 08:55:59;;;;;;;5.15;4.43;;;;;;;;;;5094768;28;20474;-78
2023/07/28 08:58:32;;;;;;;5.82;4.22;;;;;;;;;;5083259;28;20029;-77
2023/07/28 09:01:12;;;;;;;8.20;4.38;;;;;;;;;;5073522;28;20024;-77
2023/07/28 09:03:42;;;;;;;6.18;4.22;;;;;;;;;;5056352;28;20122;-78
2023/07/28 09:06:10;;;;;;;6.30;3.85;;;;;;;;;;5073023;28;20099;-80
2023/07/28 09:08:36;;;;;;;6.25;4.10;;;;;;;;;;5074995;28;20410;-77
2023/07/28 09:11:04;;;;;;;9.00;3.75;;;;;;;;;;5073210;28;20032;-80
2023/07/28 09:13:35;;;;;;;6.35;3.35;;;;;;;;;;5071390;28;20021;-80
2023/07/28 09:16:01;;;;;;;4.82;3.00;;;;;;;;;;5073655;28;20411;-79
2023/07/28 09:18:29;;;;;;;3.83;2.95;;;;;;;;;;5055719;28;20040;-80
2023/07/28 09:20:55;;;;;;;4.78;2.40;;;;;;;;;;5073795;28;20024;-81
2023/07/28 09:23:28;;;;;;;11.00;2.90;;;;;;;;;;5076331;28;20187;-81
2023/07/28 09:25:59;;;;;;;5.22;2.90;;;;;;;;;;5083911;28;20021;-81
2023/07/28 09:28:39;;;;;;;4.32;2.42;;;;;;;;;;5076540;28;20036;-82
2023/07/28 09:31:05;;;;;;;3.38;2.42;;;;;;;;;;5093201;28;20020;-82
2023/07/28 09:33:32;;;;;;;3.25;2.30;;;;;;;;;;5093948;28;20024;-81
2023/07/28 09:36:10;;;;;;;6.05;2.53;;;;;;;;;;5075883;28;20028;-83
2023/07/28 09:38:37;;;;;;;2.92;2.08;;;;;;;;;;5094529;28;20103;-80
2023/07/28 09:41:05;;;;;;;8.98;2.35;;;;;;;;;;5093218;28;20081;-82
2023/07/28 09:43:31;;;;;;;5.65;1.95;;;;;;;;;;5092749;28;20055;-81
2023/07/28 09:45:56;;;;;;;3.20;2.05;;;;;;;;;;5092978;28;20032;-81
2023/07/28 09:48:23;;;;;;;4.30;2.25;;;;;;;;;;5075722;28;20043;-83
2023/07/28 09:50:49;;;;;;;6.47;1.92;;;;;;;;;;5093674;28;20039;-80
2023/07/28 09:53:14;;;;;;;5.25;2.42;;;;;;;;;;5092525;28;20474;-83
2023/07/28 09:55:42;;;;;;;7.03;2.15;;;;;;;;;;5092332;28;20055;-83
2023/07/28 09:58:09;;;;;;;10.60;2.20;;;;;;;;;;5092102;28;20034;-83
2023/07/28 10:00:35;;;;;;;7.70;2.22;;;;;;;;;;5092392;28;20023;-83
2023/07/28 10:03:03;;;;;;;3.60;2.15;;;;;;;;;;5092577;28;20387;-81
2023/07/28 10:05:29;;;;;;;4.40;1.98;;;;;;;;;;5092404;28;20073;-82
2023/07/28 10:07:54;;;;;;;7.40;2.00;;;;;;;;;;5092224;28;20035;-83
2023/07/28 10:10:20;;;;;;;2.92;1.75;;;;;;;;;;5092273;28;20032;-82
2023/07/28 10:12:50;;;;;;;7.93;1.70;;;;;;;;;;5093701;28;20082;-83
2023/07/28 10:15:17;;;;;;;4.55;1.73;;;;;;;;;;5092284;28;20083;-80
2023/07/28 10:17:49;;;;;;;4.40;1.80;;;;;;;;;;5090853;28;20042;-81
2023/07/28 10:20:27;;;;;;;4.65;1.70;;;;;;;;;;5092814;28;20028;-82
2023/07/28 10:22:53;;;;;;;3.50;1.90;;;;;;;;;;5092706;28;20111;-84
2023/07/28 10:25:23;;;;;;;3.05;1.70;;;;;;;;;;5091456;28;20048;-80
2023/07/28 10:27:50;;;;;;;3.65;1.88;;;;;;;;;;5091387;28;20020;-80
2023/07/28 10:30:16;;;;;;;2.00;1.58;;;;;;;;;;5091493;28;20051;-85
2023/07/28 10:32:48;;;;;;;4.70;1.90;;;;;;;;;;5091215;28;20032;-82
2023/07/28 10:35:13;;;;;;;3.97;1.90;;;;;;;;;;5091347;28;20111;-83
2023/07/28 10:37:43;;;;;;;5.80;1.75;;;;;;;;;;5092496;28;20066;-82
2023/07/28 10:40:27;;;;;;;6.45;1.67;;;;;;;;;;5091228;28;20031;-84
2023/07/28 10:42:53;;;;;;;4.10;1.58;;;;;;;;;;5092430;28;20020;-83
2023/07/28 10:45:20;;;;;;;2.53;1.65;;;;;;;;;;5092487;28;20081;-85
2023/07/28 10:47:45;;;;;;;3.28;1.80;;;;;;;;;;5091028;28;20028;-82
2023/07/28 10:50:12;;;;;;;3.05;1.58;;;;;;;;;;5091327;28;20086;-83
2023/07/28 10:52:45;;;;;;;3.50;1.95;;;;;;;;;;5092287;28;20047;-82
2023/07/28 10:55:20;;;;;;;1.65;1.55;;;;;;;;;;5091206;28;20051;-80
2023/07/28 10:57:46;;;;;;;4.20;1.85;;;;;;;;;;5091217;28;20031;-81
2023/07/28 11:00:14;;;;;;;3.58;1.88;;;;;;;;;;5074277;28;20036;-82
2023/07/28 11:02:43;;;;;;;1.92;1.50;;;;;;;;;;5074263;28;20430;-81
2023/07/28 11:05:22;;;;;;;4.18;2.08;;;;;;;;;;5090971;28;20445;-82
2023/07/28 11:07:48;;;;;;;4.43;1.63;;;;;;;;;;5094480;28;20079;-84
2023/07/28 11:10:17;;;;;;;3.10;1.80;;;;;;;;;;5096104;28;20505;-82
2023/07/28 11:12:47;;;;;;;2.08;1.33;;;;;;;;;;5096504;28;20051;-84
2023/07/28 11:15:14;;;;;;;4.93;2.00;;;;;;;;;;5095291;28;20044;-81
2023/07/28 11:17:40;;;;;;;3.67;1.75;;;;;;;;;;5096728;28;20028;-82
2023/07/28 11:20:19;;;;;;;10.82;1.90;;;;;;;;;;5078444;28;20490;-82
2023/07/28 11:22:46;;;;;;;6.95;1.80;;;;;;;;;;5095308;28;20032;-83
2023/07/28 11:25:12;;;;;;;4.18;1.80;;;;;;;;;;5078343;28;20039;-82
2023/07/28 11:27:39;;;;;;;3.90;2.03;;;;;;;;;;5078394;28;20107;-83
2023/07/28 11:30:07;;;;;;;4.10;1.80;;;;;;;;;;5095478;28;20028;-82
2023/07/28 11:32:34;;;;;;;4.22;2.00;;;;;;;;;;5096636;28;20048;-83
2023/07/28 11:35:09;;;;;;;2.70;1.90;;;;;;;;;;5096462;28;20433;-83
2023/07/28 11:37:35;;;;;;;4.32;1.75;;;;;;;;;;5095222;28;20032;-82
2023/07/28 11:40:10;;;;;;;2.95;1.83;;;;;;;;;;5095220;28;20067;-82
2023/07/28 11:42:37;;;;;;;5.82;2.10;;;;;;;;;;5078986;28;20452;-82
2023/07/28 11:45:04;;;;;;;3.88;1.98;;;;;;;;;;5078170;28;20426;-82
2023/07/28 11:47:30;;;;;;;3.72;1.77;;;;;;;;;;5094905;28;20055;-82
2023/07/28 11:49:58;;;;;;;2.97;2.00;;;;;;;;;;5096337;28;20417;-84
2023/07/28 11:52:23;;;;;;;3.70;2.00;;;;;;;;;;5095813;28;20028;-83
2023/07/28 11:54:49;;;;;;;4.70;1.80;;;;;;;;;;5094740;28;20371;-83
2023/07/28 11:57:14;;;;;;;3.33;1.90;;;;;;;;;;5095166;28;20466;-83
2023/07/28 11:59:40;;;;;;;9.15;2.10;;;;;;;;;;5094963;28;20032;-82
2023/07/28 12:02:07;;;;;;;3.72;2.15;;;;;;;;;;5094449;28;20031;-81
2023/07/28 12:04:36;;;;;;;1.98;1.77;;;;;;;;;;5094553;28;20059;-81
2023/07/28 12:07:13;;;;;;;3.45;1.92;;;;;;;;;;5095737;28;20371;-81
2023/07/28 12:09:58;;;;;;;2.55;1.85;;;;;;;;;;5094520;28;20020;-83
2023/07/28 12:12:25;;;;;;;2.65;1.83;;;;;;;;;;5096457;28;20016;-83
2023/07/28 12:14:51;;;;;;;3.05;2.20;;;;;;;;;;5094075;28;20534;-83
2023/07/28 12:17:21;;;;;;;4.75;2.42;;;;;;;;;;5094851;28;20036;-84
2023/07/28 12:19:56;;;;;;;6.25;2.05;;;;;;;;;;5094346;28;20028;-84
2023/07/28 12:22:21;;;;;;;3.20;2.05;;;;;;;;;;5095357;28;20115;-84
2023/07/28 12:24:47;;;;;;;3.63;2.10;;;;;;;;;;5096029;28;20111;-83
2023/07/28 12:27:13;;;;;;;3.13;2.30;;;;;;;;;;5095335;28;20035;-83
2023/07/28 12:29:38;;;;;;;2.78;2.03;;;;;;;;;;5095635;28;20028;-85
2023/07/28 12:32:04;;;;;;;3.15;2.38;;;;;;;;;;5096870;28;20111;-84
2023/07/28 12:34:30;;;;;;;3.15;2.30;;;;;;;;;;5094169;28;20024;-84
2023/07/28 12:36:55;;;;;;;2.50;2.13;;;;;;;;;;5095269;28;20058;-82
2023/07/28 12:39:21;;;;;;;4.60;2.50;;;;;;;;;;5095530;28;20471;-83
2023/07/28 12:41:46;;;;;;;2.78;2.10;;;;;;;;;;5093976;28;20089;-84
2023/07/28 12:44:12;;;;;;;3.30;2.10;;;;;;;;;;5094090;28;20081;-83
2023/07/28 12:46:37;;;;;;;4.80;2.13;;;;;;;;;;5093818;28;20101;-83
2023/07/28 12:49:03;;;;;;;3.10;2.10;;;;;;;;;;5094026;28;20063;-85
2023/07/28 12:51:28;;;;;;;2.38;1.90;;;;;;;;;;5093754;28;20050;-87
2023/07/28 12:53:54;;;;;;;3.30;2.10;;;;;;;;;;5095120;28;20024;-84
2023/07/28 12:56:19;;;;;;;2.80;2.10;;;;;;;;;;5094097;28;20469;-84
2023/07/28 12:58:44;;;;;;;2.75;2.00;;;;;;;;;;5093867;28;20027;-82
2023/07/28 13:01:11;;;;;;;2.38;2.17;;;;;;;;;;5093758;28;20031;-83
2023/07/28 13:03:38;;;;;;;5.38;2.22;;;;;;;;;;5093258;28;20060;-82
2023/07/28 13:06:03;;;;;;;2.90;2.28;;;;;;;;;;5093399;28;20039;-82
2023/07/28 13:08:29;;;;;;;3.17;2.00;;;;;;;;;;5093636;28;20020;-82
2023/07/28 13:10:54;;;;;;;5.88;2.30;;;;;;;;;;5093288;28;20028;-82
2023/07/28 13:13:20;;;;;;;4.78;2.78;;;;;;;;;;5076231;28;20028;-82
2023/07/28 13:15:45;;;;;;;2.42;2.10;;;;;;;;;;5109926;28;20209;-84
2023/07/28 13:18:11;;;;;;;3.53;2.30;;;;;;;;;;5093471;28;20032;-83
2023/07/28 13:20:36;;;;;;;2.28;2.00;;;;;;;;;;5093670;28;20448;-83
2023/07/28 13:23:02;;;;;;;4.10;2.10;;;;;;;;;;5092940;28;20032;-83
2023/07/28 13:25:27;;;;;;;3.80;2.00;;;;;;;;;;5093050;28;20028;-84
2023/07/28 13:27:52;;;;;;;3.55;2.08;;;;;;;;;;5094496;28;20060;-84
2023/07/28 13:30:18;;;;;;;2.83;1.95;;;;;;;;;;5096454;28;20039;-84
2023/07/28 13:32:43;;;;;;;2.22;1.90;;;;;;;;;;5093234;28;20030;-84
2023/07/28 13:35:09;;;;;;;2.20;1.90;;;;;;;;;;5094319;28;20069;-83
2023/07/28 13:37:34;;;;;;;7.90;1.98;;;;;;;;;;5094022;28;20372;-85
2023/07/28 13:39:59;;;;;;;3.85;2.30;;;;;;;;;;5075845;28;20031;-83
2023/07/28 13:42:25;;;;;;;4.18;2.00;;;;;;;;;;5094152;28;20386;-83
2023/07/28 13:44:50;;;;;;;3.92;1.88;;;;;;;;;;5094234;28;20024;-82
2023/07/28 13:47:16;;;;;;;2.53;2.10;;;;;;;;;;5094209;28;20085;-82
2023/07/28 13:49:41;;;;;;;3.53;2.13;;;;;;;;;;5093810;28;20058;-82
2023/07/28 13:52:07;;;;;;;2.28;1.95;;;;;;;;;;5075492;28;20081;-82
2023/07/28 13:54:33;;;;;;;7.57;2.28;;;;;;;;;;5092553;28;20062;-82
2023/07/28 13:56:58;;;;;;;2.85;2.30;;;;;;;;;;5094411;28;20032;-80
2023/07/28 13:59:23;;;;;;;3.08;2.00;;;;;;;;;;5075998;28;20078;-80
2023/07/28 14:01:50;;;;;;;2.80;2.03;;;;;;;;;;5093980;28;20031;-82
2023/07/28 14:04:15;;;;;;;4.53;2.10;;;;;;;;;;5092535;28;20042;-83
2023/07/28 14:06:40;;;;;;;2.65;2.00;;;;;;;;;;5092517;28;20127;-83
2023/07/28 14:09:06;;;;;;;2.35;2.10;;;;;;;;;;5093904;28;20038;-83
2023/07/28 14:11:32;;;;;;;3.58;1.83;;;;;;;;;;5092947;28;20024;-83
2023/07/28 14:13:57;;;;;;;2.90;2.00;;;;;;;;;;5094112;28;20039;-83
2023/07/28 14:16:22;;;;;;;2.35;1.88;;;;;;;;;;5075273;28;20189;-83
2023/07/28 14:18:50;;;;;;;2.28;1.95;;;;;;;;;;5093730;28;20110;-83
2023/07/28 14:21:15;;;;;;;2.05;1.67;;;;;;;;;;5093866;28;20103;-83
2023/07/28 14:23:41;;;;;;;2.58;2.00;;;;;;;;;;5092433;28;20036;-83
2023/07/28 14:26:06;;;;;;;2.78;1.92;;;;;;;;;;5092541;28;20036;-83
2023/07/28 14:28:31;;;;;;;1.95;1.80;;;;;;;;;;5075249;28;20028;-84
2023/07/28 14:30:57;;;;;;;2.38;1.88;;;;;;;;;;5092487;28;20036;-83
2023/07/28 14:33:22;;;;;;;2.95;2.55;;;;;;;;;;5092324;28;20032;-84
2023/07/28 14:35:49;;;;;;;3.08;2.05;;;;;;;;;;5092151;28;20034;-84
2023/07/28 14:38:14;;;;;;;2.88;1.80;;;;;;;;;;5092507;28;20063;-84
2023/07/28 14:40:40;;;;;;;2.83;2.10;;;;;;;;;;5075302;28;20059;-83